Ankeny, Iowa
Current Conditions -  °F | °C
As of 7:15 PM on Sunday 21 Dec 2014 (Local Time) from KIKV Reporting Station
Overcast Overcast  
Wind Chill: 34°   Ceiling: 1400
Heat Index: 41°   Visibility: 10mi
Dew Point: 39°   Wind: 13mph
Humidity: 93%   Direction: 160°SSE
Pressure: 29.79"   Gusts: NA
Location:  41.73°N, 93.6°W
Report Text: KIKV 220115Z AUTO 16011KT 10SM OVC014 05/04 A2979 RMK AO2
Loading
Personal Weather Stations






























Interactive Weather Map New forecast layout! Learn more

10-Day Weather Forecast

Advertisements
Track Severe Weather on mobile